createdAt,value
2023-04-27T00:00:13.783Z,19.80
2023-04-27T00:02:57.475Z,23.70
2023-04-27T00:05:21.823Z,19.20
2023-04-27T00:07:45.455Z,19.20
2023-04-27T00:10:10.876Z,20.20
2023-04-27T00:12:34.524Z,22.60
2023-04-27T00:14:58.093Z,19.50
2023-04-27T00:17:22.283Z,21.10
2023-04-27T00:19:46.920Z,21.30
2023-04-27T00:22:15.858Z,21.10
2023-04-27T00:24:41.265Z,20.40
2023-04-27T00:27:05.161Z,18.60
2023-04-27T00:29:28.600Z,19.50
2023-04-27T00:31:52.231Z,23.40
2023-04-27T00:34:16.038Z,16.80
2023-04-27T00:36:44.835Z,19.50
2023-04-27T00:39:09.648Z,22.50
2023-04-27T00:41:38.998Z,16.40
2023-04-27T00:44:02.591Z,17.90
2023-04-27T00:46:27.346Z,19.50
2023-04-27T00:48:50.992Z,22.40
2023-04-27T00:51:35.566Z,20.20
2023-04-27T00:54:00.305Z,22.00
2023-04-27T00:56:24.321Z,18.50
2023-04-27T00:58:51.638Z,19.50
2023-04-27T01:01:16.052Z,23.40
2023-04-27T01:03:39.846Z,19.20
2023-04-27T01:06:04.389Z,20.00
2023-04-27T01:08:28.423Z,22.10
2023-04-27T01:10:52.333Z,31.10
2023-04-27T01:13:19.280Z,21.00
2023-04-27T01:15:42.808Z,19.40
2023-04-27T01:18:06.613Z,20.80
2023-04-27T01:20:31.372Z,22.10
2023-04-27T01:22:55.807Z,26.40
2023-04-27T01:25:19.994Z,20.30
2023-04-27T01:27:44.562Z,25.00
2023-04-27T01:30:09.198Z,20.60
2023-04-27T01:32:32.639Z,19.30
2023-04-27T01:34:58.382Z,23.40
2023-04-27T01:37:22.859Z,21.40
2023-04-27T01:39:47.405Z,21.30
2023-04-27T01:42:11.025Z,22.00
2023-04-27T01:44:36.186Z,25.50
2023-04-27T01:47:00.280Z,23.50
2023-04-27T01:49:24.362Z,27.10
2023-04-27T01:51:47.910Z,21.20
2023-04-27T01:54:12.120Z,23.10
2023-04-27T01:56:35.692Z,24.50
2023-04-27T01:58:59.077Z,23.10
2023-04-27T02:01:22.660Z,26.90
2023-04-27T02:03:49.536Z,25.10
2023-04-27T02:06:13.230Z,25.90
2023-04-27T02:08:36.806Z,24.90
2023-04-27T02:11:00.542Z,24.80
2023-04-27T02:13:24.005Z,24.90
2023-04-27T02:15:47.409Z,24.20
2023-04-27T02:18:12.068Z,25.10
2023-04-27T02:20:35.622Z,25.30
2023-04-27T02:22:59.495Z,26.90
2023-04-27T02:25:23.276Z,29.20
2023-04-27T02:27:46.740Z,30.30
2023-04-27T02:30:12.590Z,32.50
2023-04-27T02:32:36.897Z,27.10
2023-04-27T02:35:01.382Z,25.70
2023-04-27T02:37:25.606Z,31.60
2023-04-27T02:39:49.249Z,32.50
2023-04-27T02:42:12.712Z,29.40
2023-04-27T02:44:36.136Z,23.20
2023-04-27T02:46:59.961Z,24.40
2023-04-27T02:49:23.657Z,26.20
2023-04-27T02:51:47.202Z,26.70
2023-04-27T02:54:13.223Z,27.20
2023-04-27T02:56:39.736Z,29.30
2023-04-27T02:59:06.707Z,28.20
2023-04-27T03:01:32.676Z,25.70
2023-04-27T03:03:56.369Z,28.40
2023-04-27T03:08:45.338Z,22.90
2023-04-27T03:11:09.146Z,25.50
2023-04-27T03:13:38.060Z,23.80
2023-04-27T03:16:04.130Z,25.00
2023-04-27T03:18:29.769Z,27.50
2023-04-27T03:20:53.339Z,30.70
2023-04-27T03:23:37.576Z,27.80
2023-04-27T03:26:15.216Z,24.90
2023-04-27T03:28:39.634Z,23.60
2023-04-27T03:31:06.883Z,28.50
2023-04-27T03:33:30.219Z,23.70
2023-04-27T03:35:57.390Z,27.20
2023-04-27T03:38:21.015Z,23.00
2023-04-27T03:43:10.203Z,25.90
2023-04-27T03:45:33.860Z,31.80
2023-04-27T03:47:57.533Z,23.20
2023-04-27T03:50:23.924Z,22.60
2023-04-27T03:52:47.431Z,22.50
2023-04-27T03:55:11.916Z,26.50
2023-04-27T03:57:36.646Z,27.60
2023-04-27T04:00:00.108Z,24.30
2023-04-27T04:02:23.980Z,24.30
2023-04-27T04:04:47.982Z,24.00
2023-04-27T04:07:11.501Z,24.70
2023-04-27T04:09:35.861Z,22.30
2023-04-27T04:11:59.750Z,22.40
2023-04-27T04:14:23.291Z,21.50
2023-04-27T04:16:46.598Z,23.60
2023-04-27T04:19:10.465Z,21.90
2023-04-27T04:21:34.001Z,27.00
2023-04-27T04:23:57.399Z,22.60
2023-04-27T04:26:23.031Z,19.80
2023-04-27T04:28:46.406Z,26.70
2023-04-27T04:31:10.151Z,24.40
2023-04-27T04:33:34.284Z,22.50
2023-04-27T04:35:58.268Z,23.40
2023-04-27T04:38:22.959Z,25.30
2023-04-27T04:40:46.876Z,22.40
2023-04-27T04:43:11.583Z,17.50
2023-04-27T04:45:35.293Z,19.00
2023-04-27T04:48:00.814Z,16.10
2023-04-27T04:50:27.037Z,13.80
2023-04-27T04:52:50.482Z,16.20
2023-04-27T04:55:14.826Z,16.20
2023-04-27T04:57:38.284Z,16.40
2023-04-27T05:00:06.050Z,16.60
2023-04-27T05:02:30.837Z,16.40
2023-04-27T05:04:56.513Z,17.40
2023-04-27T05:07:24.138Z,14.10
2023-04-27T05:09:48.368Z,14.60
2023-04-27T05:12:11.864Z,14.90
2023-04-27T05:14:35.505Z,16.90
2023-04-27T05:16:59.190Z,16.40
2023-04-27T05:19:22.560Z,15.20
2023-04-27T05:21:45.993Z,16.00
2023-04-27T05:24:09.563Z,14.60
2023-04-27T05:26:32.905Z,12.90
2023-04-27T05:28:56.219Z,12.90
2023-04-27T05:31:20.060Z,15.10
2023-04-27T05:33:43.363Z,14.40
2023-04-27T05:36:07.628Z,11.10
2023-04-27T05:38:32.896Z,13.80
2023-04-27T05:40:56.766Z,16.80
2023-04-27T05:43:20.113Z,11.50
2023-04-27T05:45:43.940Z,12.90
2023-04-27T05:48:07.436Z,15.30
2023-04-27T05:50:31.050Z,13.30
2023-04-27T05:52:54.573Z,14.70
2023-04-27T05:55:17.919Z,15.90
2023-04-27T05:57:41.427Z,24.90
2023-04-27T06:00:10.091Z,13.70
2023-04-27T06:02:36.530Z,15.10
2023-04-27T06:05:00.262Z,15.40
2023-04-27T06:07:23.922Z,13.10
2023-04-27T06:09:47.467Z,15.00
2023-04-27T06:12:10.834Z,12.70
2023-04-27T06:14:35.860Z,11.60
2023-04-27T06:16:59.380Z,14.80
2023-04-27T06:19:22.688Z,14.40
2023-04-27T06:21:46.212Z,13.60
2023-04-27T06:24:09.642Z,12.20
2023-04-27T06:26:33.171Z,11.80
2023-04-27T06:28:56.793Z,12.50
2023-04-27T06:31:20.369Z,13.50
2023-04-27T06:33:43.879Z,13.80
2023-04-27T06:36:08.049Z,11.40
2023-04-27T06:38:31.473Z,13.40
2023-04-27T06:40:54.983Z,12.10
2023-04-27T06:43:19.473Z,13.30
2023-04-27T06:45:43.316Z,11.40
2023-04-27T06:48:07.084Z,13.50
2023-04-27T06:50:31.110Z,12.60
2023-04-27T06:52:54.455Z,13.90
2023-04-27T06:55:17.919Z,11.70
2023-04-27T06:57:41.676Z,15.00
2023-04-27T07:00:07.162Z,10.20
2023-04-27T07:02:30.675Z,13.60
2023-04-27T07:04:54.950Z,14.70
2023-04-27T07:07:18.571Z,10.90
2023-04-27T07:09:42.032Z,12.90
2023-04-27T07:12:06.149Z,12.80
2023-04-27T07:14:29.946Z,11.50
2023-04-27T07:16:53.318Z,11.50
2023-04-27T07:19:17.276Z,11.70
2023-04-27T07:21:40.689Z,12.00
2023-04-27T07:24:04.539Z,9.10
2023-04-27T07:26:28.698Z,9.50
2023-04-27T07:28:52.078Z,11.10
2023-04-27T07:31:15.502Z,10.00
2023-04-27T07:33:39.124Z,10.90
2023-04-27T07:36:04.030Z,12.00
2023-04-27T07:38:28.355Z,10.40
2023-04-27T07:40:52.119Z,10.30
2023-04-27T07:43:15.678Z,11.90
2023-04-27T07:45:40.815Z,11.00
2023-04-27T07:48:05.604Z,11.40
2023-04-27T07:50:29.822Z,10.90
2023-04-27T07:52:53.901Z,10.70
2023-04-27T07:55:17.753Z,8.60
2023-04-27T07:57:41.126Z,12.70
2023-04-27T08:00:08.390Z,8.80
2023-04-27T08:02:36.602Z,9.50
2023-04-27T08:05:02.473Z,11.20
2023-04-27T08:07:26.995Z,9.80
2023-04-27T08:09:51.991Z,10.70
2023-04-27T08:12:15.376Z,7.10
2023-04-27T08:14:38.691Z,8.10
2023-04-27T08:17:02.537Z,11.20
2023-04-27T08:19:26.321Z,9.10
2023-04-27T08:21:49.701Z,8.80
2023-04-27T08:24:13.364Z,11.30
2023-04-27T08:26:37.187Z,9.90
2023-04-27T08:29:08.773Z,9.50
2023-04-27T08:31:39.879Z,10.90
2023-04-27T08:34:03.651Z,10.70
2023-04-27T08:36:28.003Z,10.50
2023-04-27T08:38:52.386Z,7.90
2023-04-27T08:41:22.208Z,7.90
2023-04-27T08:43:46.268Z,7.90
2023-04-27T08:46:09.813Z,10.90
2023-04-27T08:48:33.266Z,11.80
2023-04-27T08:50:59.291Z,7.90
2023-04-27T08:53:23.922Z,9.10
2023-04-27T08:55:47.602Z,7.70
2023-04-27T08:58:10.929Z,7.90
2023-04-27T09:00:41.829Z,7.20
2023-04-27T09:03:05.850Z,8.40
2023-04-27T09:05:30.086Z,7.50
2023-04-27T09:08:01.646Z,7.50
2023-04-27T09:10:25.134Z,9.50
2023-04-27T09:12:56.678Z,6.90
2023-04-27T09:15:20.653Z,6.20
2023-04-27T09:17:45.401Z,7.20
2023-04-27T09:20:12.577Z,10.20
2023-04-27T09:22:44.586Z,8.40
2023-04-27T09:25:09.009Z,14.00
2023-04-27T09:27:37.571Z,13.10
2023-04-27T09:30:01.382Z,10.10
2023-04-27T09:32:27.653Z,11.00
2023-04-27T09:34:51.108Z,14.60
2023-04-27T09:37:18.520Z,8.20
2023-04-27T09:39:42.899Z,9.80
2023-04-27T09:42:15.963Z,12.50
2023-04-27T09:44:40.130Z,13.60
2023-04-27T09:47:04.568Z,7.20
2023-04-27T09:49:28.923Z,9.20
2023-04-27T09:51:56.614Z,6.80
2023-04-27T09:54:27.269Z,6.20
2023-04-27T09:57:01.286Z,4.70
2023-04-27T09:59:48.329Z,6.20
2023-04-27T10:02:25.658Z,5.60
2023-04-27T10:05:16.842Z,4.00
2023-04-27T10:07:41.491Z,4.50
2023-04-27T10:10:06.698Z,7.20
2023-04-27T10:12:35.982Z,5.50
2023-04-27T10:15:11.867Z,5.60
2023-04-27T10:17:36.817Z,8.90
2023-04-27T10:20:02.736Z,7.10
2023-04-27T10:22:38.883Z,3.80
2023-04-27T10:25:14.422Z,5.70
2023-04-27T10:27:40.513Z,7.70
2023-04-27T10:30:11.602Z,5.70
2023-04-27T10:32:35.284Z,7.00
2023-04-27T10:35:06.995Z,7.20
2023-04-27T10:37:40.735Z,5.50
2023-04-27T10:40:10.130Z,7.90
2023-04-27T10:42:33.581Z,9.90
2023-04-27T10:44:58.539Z,5.70
2023-04-27T10:47:44.554Z,9.50
2023-04-27T10:50:13.705Z,7.60
2023-04-27T10:52:42.314Z,6.70
2023-04-27T10:55:16.777Z,8.90
2023-04-27T10:57:48.114Z,5.50
2023-04-27T11:00:16.454Z,8.00
2023-04-27T11:03:13.810Z,8.40
2023-04-27T11:05:38.146Z,8.30
2023-04-27T11:08:09.507Z,11.60
2023-04-27T11:10:34.806Z,8.40
2023-04-27T11:12:58.767Z,8.40
2023-04-27T11:15:22.802Z,8.10
2023-04-27T11:17:46.483Z,8.50
2023-04-27T11:20:10.870Z,6.50
2023-04-27T11:22:34.585Z,6.00
2023-04-27T11:25:00.267Z,7.00
2023-04-27T11:27:24.731Z,8.30
2023-04-27T11:29:48.290Z,6.70
2023-04-27T11:32:20.489Z,7.40
2023-04-27T11:34:50.166Z,5.50
2023-04-27T11:37:23.784Z,4.60
2023-04-27T11:40:13.369Z,6.10
2023-04-27T11:42:42.848Z,9.30
2023-04-27T11:45:12.334Z,4.90
2023-04-27T11:47:36.093Z,5.90
2023-04-27T11:50:23.689Z,9.80
2023-04-27T11:52:50.369Z,6.60
2023-04-27T11:55:15.338Z,6.50
2023-04-27T11:57:39.560Z,5.30
2023-04-27T12:00:10.109Z,4.90
2023-04-27T12:02:40.117Z,4.70
2023-04-27T12:05:04.793Z,2.90
2023-04-27T12:07:31.080Z,5.80
2023-04-27T12:09:55.081Z,5.70
2023-04-27T12:12:21.312Z,5.50
2023-04-27T12:14:45.347Z,7.70
2023-04-27T12:17:08.968Z,4.60
2023-04-27T12:19:32.511Z,3.90
2023-04-27T12:21:57.609Z,6.40
2023-04-27T12:24:37.349Z,9.00
2023-04-27T12:27:04.716Z,6.40
2023-04-27T12:29:37.699Z,6.20
2023-04-27T12:32:04.644Z,7.10
2023-04-27T12:34:39.157Z,4.70
2023-04-27T12:37:24.880Z,5.20
2023-04-27T12:39:50.632Z,5.20
2023-04-27T12:42:34.652Z,7.20
2023-04-27T12:44:58.447Z,4.90
2023-04-27T12:47:45.771Z,8.50
2023-04-27T12:50:09.777Z,5.60
2023-04-27T12:52:33.412Z,6.10
2023-04-27T12:54:59.017Z,3.80
2023-04-27T12:57:23.139Z,4.50
2023-04-27T12:59:46.644Z,6.10
2023-04-27T13:02:13.004Z,7.60
2023-04-27T13:04:37.227Z,5.20
2023-04-27T13:07:00.895Z,9.90
2023-04-27T13:09:45.214Z,3.70
2023-04-27T13:12:13.362Z,6.60
2023-04-27T13:14:36.725Z,5.60
2023-04-27T13:17:04.021Z,6.20
2023-04-27T13:19:27.371Z,6.70
2023-04-27T13:22:12.769Z,4.50
2023-04-27T13:24:57.448Z,5.70
2023-04-27T13:27:40.718Z,5.00
2023-04-27T13:30:09.960Z,5.60
2023-04-27T13:32:42.686Z,9.30
2023-04-27T13:35:26.994Z,4.10
2023-04-27T13:37:53.390Z,3.70
2023-04-27T13:40:20.918Z,6.50
2023-04-27T13:42:51.513Z,7.90
2023-04-27T13:45:15.160Z,4.80
2023-04-27T13:47:39.982Z,4.50
2023-04-27T13:50:05.270Z,6.00
2023-04-27T13:52:32.446Z,6.50
2023-04-27T13:54:59.077Z,4.40
2023-04-27T13:57:22.545Z,3.20
2023-04-27T13:59:55.278Z,5.10
2023-04-27T14:02:30.345Z,4.80
2023-04-27T14:04:54.529Z,9.70
2023-04-27T14:07:23.428Z,6.50
2023-04-27T14:09:47.200Z,5.00
2023-04-27T14:12:14.065Z,5.10
2023-04-27T14:14:47.481Z,6.70
2023-04-27T14:17:31.811Z,5.90
2023-04-27T14:19:55.828Z,5.70
2023-04-27T14:22:31.127Z,7.00
2023-04-27T14:24:56.949Z,5.70
2023-04-27T14:27:20.498Z,4.10
2023-04-27T14:29:47.456Z,5.10
2023-04-27T14:32:12.241Z,5.80
2023-04-27T14:34:38.744Z,6.60
2023-04-27T14:37:22.763Z,7.30
2023-04-27T14:39:46.846Z,8.10
2023-04-27T14:42:10.266Z,7.70
2023-04-27T14:44:48.717Z,7.90
2023-04-27T14:47:33.646Z,5.30
2023-04-27T14:50:18.620Z,4.70
2023-04-27T14:53:02.516Z,4.20
2023-04-27T14:55:29.682Z,7.40
2023-04-27T14:57:53.166Z,5.90
2023-04-27T15:00:18.146Z,6.20
2023-04-27T15:02:42.053Z,11.80
2023-04-27T15:05:12.725Z,12.40
2023-04-27T15:10:06.662Z,7.20
2023-04-27T15:12:31.324Z,32.20
2023-04-27T15:15:08.715Z,11.80
2023-04-27T15:17:34.332Z,6.70
2023-04-27T15:20:19.382Z,9.50
2023-04-27T15:22:43.707Z,9.00
2023-04-27T15:25:09.352Z,10.20
2023-04-27T15:27:54.829Z,10.20
2023-04-27T15:30:18.578Z,10.10
2023-04-27T15:32:43.148Z,7.50
2023-04-27T15:35:28.067Z,7.70
2023-04-27T15:37:53.006Z,5.60
2023-04-27T15:40:30.188Z,7.80
2023-04-27T15:43:14.401Z,6.90
2023-04-27T15:45:58.094Z,11.30
2023-04-27T15:48:32.738Z,7.90
2023-04-27T15:51:16.797Z,8.90
2023-04-27T15:53:54.322Z,7.10
2023-04-27T15:56:19.517Z,7.60
2023-04-27T15:58:42.943Z,12.20
2023-04-27T16:01:27.259Z,8.40
2023-04-27T16:04:04.020Z,8.80
2023-04-27T16:06:32.438Z,7.80
2023-04-27T16:08:58.713Z,8.70
2023-04-27T16:11:22.360Z,11.40
2023-04-27T16:13:57.686Z,7.00
2023-04-27T16:16:41.610Z,10.30
2023-04-27T16:19:25.842Z,7.90
2023-04-27T16:22:09.649Z,9.80
2023-04-27T16:24:45.421Z,8.30
2023-04-27T16:27:13.736Z,9.30
2023-04-27T16:29:37.214Z,9.10
2023-04-27T16:32:12.836Z,9.90
2023-04-27T16:34:39.625Z,7.40
2023-04-27T16:37:03.282Z,6.90
2023-04-27T16:39:47.460Z,8.10
2023-04-27T16:42:12.740Z,9.10
2023-04-27T16:44:39.296Z,8.60
2023-04-27T16:47:03.366Z,7.90
2023-04-27T16:49:29.371Z,10.00
2023-04-27T16:51:55.921Z,10.20
2023-04-27T16:54:20.490Z,10.20
2023-04-27T16:56:55.083Z,9.20
2023-04-27T16:59:21.289Z,8.00
2023-04-27T17:01:52.351Z,7.30
2023-04-27T17:04:19.315Z,8.90
2023-04-27T17:07:03.535Z,8.20
2023-04-27T17:09:27.399Z,9.80
2023-04-27T17:11:50.819Z,7.20
2023-04-27T17:14:15.002Z,7.60
2023-04-27T17:16:59.659Z,11.00
2023-04-27T17:19:43.913Z,8.50
2023-04-27T17:22:29.322Z,9.90
2023-04-27T17:24:55.935Z,11.30
2023-04-27T17:27:24.532Z,9.00
2023-04-27T17:30:10.364Z,8.60
2023-04-27T17:32:34.015Z,7.00
2023-04-27T17:35:20.044Z,8.70
2023-04-27T17:37:48.651Z,11.30
2023-04-27T17:40:33.410Z,18.20
2023-04-27T17:43:04.247Z,13.20
2023-04-27T17:45:28.392Z,11.80
2023-04-27T17:47:55.300Z,11.10
2023-04-27T17:50:30.204Z,10.10
2023-04-27T17:52:57.293Z,9.50
2023-04-27T17:55:21.034Z,9.10
2023-04-27T17:57:44.382Z,9.80
2023-04-27T18:00:10.682Z,11.40
2023-04-27T18:02:34.789Z,11.10
2023-04-27T18:04:58.566Z,13.10
2023-04-27T18:07:23.193Z,11.00
2023-04-27T18:09:46.762Z,12.50
2023-04-27T18:12:10.558Z,10.20
2023-04-27T18:14:34.656Z,11.40
2023-04-27T18:16:58.008Z,12.80
2023-04-27T18:19:22.099Z,15.90
2023-04-27T18:21:45.894Z,15.90
2023-04-27T18:24:09.963Z,12.80
2023-04-27T18:26:35.950Z,14.60
2023-04-27T18:28:59.959Z,10.20
2023-04-27T18:31:25.819Z,12.40
2023-04-27T18:33:52.417Z,13.80
2023-04-27T18:36:34.011Z,10.70
2023-04-27T18:38:57.786Z,10.00
2023-04-27T18:41:23.720Z,11.80
2023-04-27T18:43:52.484Z,17.30
2023-04-27T18:46:16.115Z,11.80
2023-04-27T18:49:01.192Z,14.20
2023-04-27T18:51:28.480Z,22.00
2023-04-27T18:53:55.464Z,16.10
2023-04-27T18:56:19.523Z,13.30
2023-04-27T18:59:03.252Z,13.10
2023-04-27T19:01:37.691Z,13.80
2023-04-27T19:04:11.157Z,14.80
2023-04-27T19:06:37.501Z,13.90
2023-04-27T19:09:11.215Z,16.40
2023-04-27T19:11:46.765Z,12.20
2023-04-27T19:14:33.507Z,17.80
2023-04-27T19:17:18.161Z,14.70
2023-04-27T19:19:52.967Z,22.80
2023-04-27T19:22:28.742Z,16.20
2023-04-27T19:25:12.516Z,19.50
2023-04-27T19:27:45.599Z,14.90
2023-04-27T19:30:12.451Z,16.00
2023-04-27T19:32:36.232Z,19.20
2023-04-27T19:35:00.153Z,19.60
2023-04-27T19:37:34.674Z,16.90
2023-04-27T19:39:58.137Z,20.20
2023-04-27T19:42:21.706Z,20.10
2023-04-27T19:44:45.248Z,21.30
2023-04-27T19:47:10.347Z,18.20
2023-04-27T19:49:34.456Z,20.80
2023-04-27T19:51:57.855Z,18.50
2023-04-27T19:54:21.378Z,24.20
2023-04-27T19:56:49.698Z,23.60
2023-04-27T19:59:33.923Z,22.10
2023-04-27T20:02:17.482Z,17.60
2023-04-27T20:04:52.776Z,18.40
2023-04-27T20:07:37.423Z,18.50
2023-04-27T20:10:13.910Z,24.80
2023-04-27T20:12:54.240Z,20.60
2023-04-27T20:15:19.530Z,23.60
2023-04-27T20:17:43.283Z,21.60
2023-04-27T20:20:09.858Z,17.40
2023-04-27T20:22:33.724Z,19.90
2023-04-27T20:24:58.611Z,19.10
2023-04-27T20:27:25.155Z,21.80
2023-04-27T20:29:56.704Z,19.80
2023-04-27T20:32:23.283Z,28.10
2023-04-27T20:34:55.622Z,39.70
2023-04-27T20:37:19.315Z,54.60
2023-04-27T20:39:53.366Z,58.60
2023-04-27T20:42:20.233Z,66.50
2023-04-27T20:44:47.808Z,77.10
2023-04-27T20:47:23.097Z,68.60
2023-04-27T20:49:49.751Z,57.70
2023-04-27T20:54:39.150Z,54.90
2023-04-27T20:57:07.853Z,62.30
2023-04-27T20:59:31.942Z,80.50
2023-04-27T21:02:00.476Z,67.10
2023-04-27T21:04:44.360Z,78.20
2023-04-27T21:07:28.381Z,77.40
2023-04-27T21:10:12.072Z,60.00
2023-04-27T21:12:44.789Z,54.90
2023-04-27T21:15:10.203Z,55.50
2023-04-27T21:17:54.174Z,50.70
2023-04-27T21:20:20.775Z,40.40
2023-04-27T21:23:04.858Z,42.10
2023-04-27T21:25:31.179Z,35.80
2023-04-27T21:27:56.907Z,36.10
2023-04-27T21:30:41.477Z,34.60
2023-04-27T21:33:25.317Z,32.40
2023-04-27T21:36:10.053Z,28.80
2023-04-27T21:38:36.395Z,29.10
2023-04-27T21:41:02.442Z,34.40
2023-04-27T21:43:35.410Z,23.30
2023-04-27T21:46:10.185Z,25.40
2023-04-27T21:48:55.000Z,27.00
2023-04-27T21:51:31.385Z,27.60
2023-04-27T21:53:57.573Z,26.00
2023-04-27T21:56:23.832Z,23.20
2023-04-27T22:01:22.194Z,24.60
2023-04-27T22:03:53.267Z,25.50
2023-04-27T22:06:32.924Z,31.80
2023-04-27T22:09:16.947Z,22.90
2023-04-27T22:11:43.976Z,23.50
2023-04-27T22:14:27.669Z,26.90
2023-04-27T22:16:55.452Z,26.30
2023-04-27T22:19:19.069Z,27.20
2023-04-27T22:21:52.138Z,24.80
2023-04-27T22:24:16.228Z,29.70
2023-04-27T22:26:42.834Z,31.10
2023-04-27T22:29:17.026Z,32.00
2023-04-27T22:31:51.931Z,30.80
2023-04-27T22:34:18.513Z,28.10
2023-04-27T22:37:02.284Z,28.90
2023-04-27T22:39:35.752Z,29.60
2023-04-27T22:42:02.435Z,30.70
2023-04-27T22:44:46.686Z,28.40
2023-04-27T22:50:00.774Z,29.40
2023-04-27T22:52:44.844Z,31.40
2023-04-27T22:55:12.092Z,27.00
2023-04-27T22:57:36.034Z,28.40
2023-04-27T23:00:04.984Z,26.90
2023-04-27T23:02:28.921Z,29.10
2023-04-27T23:04:55.453Z,29.80
2023-04-27T23:07:40.538Z,31.30
2023-04-27T23:10:26.178Z,31.80
2023-04-27T23:12:54.191Z,31.70
2023-04-27T23:15:17.889Z,28.00
2023-04-27T23:17:41.222Z,26.30
2023-04-27T23:20:24.051Z,30.60
2023-04-27T23:22:51.251Z,25.20
2023-04-27T23:25:15.274Z,30.30
2023-04-27T23:27:56.503Z,28.00
2023-04-27T23:30:23.272Z,30.60
2023-04-27T23:33:07.513Z,27.70
2023-04-27T23:35:45.200Z,26.90
2023-04-27T23:38:19.848Z,28.90
2023-04-27T23:41:02.829Z,25.80
2023-04-27T23:43:45.420Z,28.70
2023-04-27T23:46:29.418Z,24.90
2023-04-27T23:49:13.347Z,28.00
2023-04-27T23:51:57.452Z,30.40
2023-04-27T23:54:41.139Z,25.50
2023-04-27T23:57:25.714Z,25.00
